createdAt,value
2018-09-21T00:00:30.016Z,20.40
2018-09-21T00:01:30.022Z,20.40
2018-09-21T00:02:30.029Z,20.39
2018-09-21T00:03:29.983Z,20.36
2018-09-21T00:04:29.982Z,20.31
2018-09-21T00:05:29.963Z,20.37
2018-09-21T00:06:29.967Z,20.32
2018-09-21T00:07:29.939Z,20.29
2018-09-21T00:08:29.923Z,20.37
2018-09-21T00:09:29.925Z,20.36
2018-09-21T00:10:29.906Z,20.34
2018-09-21T00:11:29.916Z,20.26
2018-09-21T00:12:29.880Z,20.24
2018-09-21T00:13:29.867Z,20.16
2018-09-21T00:14:29.878Z,20.19
2018-09-21T00:15:29.851Z,20.24
2018-09-21T00:16:29.841Z,20.14
2018-09-21T00:17:29.851Z,20.10
2018-09-21T00:18:29.819Z,20.10
2018-09-21T00:19:29.804Z,20.09
2018-09-21T00:20:29.793Z,20.09
2018-09-21T00:21:29.788Z,20.07
2018-09-21T00:22:29.794Z,20.06
2018-09-21T00:23:29.779Z,20.13
2018-09-21T00:24:29.767Z,20.21
2018-09-21T00:25:29.735Z,20.16
2018-09-21T00:26:29.732Z,20.16
2018-09-21T00:27:29.716Z,20.19
2018-09-21T00:28:29.726Z,20.22
2018-09-21T00:29:29.699Z,20.29
2018-09-21T00:30:29.685Z,20.21
2018-09-21T00:31:29.692Z,20.25
2018-09-21T00:32:29.658Z,20.14
2018-09-21T00:33:29.646Z,20.16
2018-09-21T00:34:29.658Z,20.10
2018-09-21T00:35:29.632Z,20.24
2018-09-21T00:36:29.623Z,20.19
2018-09-21T00:37:29.610Z,20.18
2018-09-21T00:38:29.613Z,20.24
2018-09-21T00:39:29.588Z,20.34
2018-09-21T00:40:29.570Z,20.32
2018-09-21T00:41:29.583Z,20.34
2018-09-21T00:42:29.553Z,20.32
2018-09-21T00:43:29.538Z,20.34
2018-09-21T00:44:29.529Z,20.40
2018-09-21T00:45:29.542Z,20.37
2018-09-21T00:46:29.506Z,20.37
2018-09-21T00:47:29.497Z,20.40
2018-09-21T00:48:29.491Z,20.43
2018-09-21T00:49:29.472Z,20.39
2018-09-21T00:50:29.466Z,20.32
2018-09-21T00:51:29.483Z,20.34
2018-09-21T00:52:29.446Z,20.32
2018-09-21T00:53:29.434Z,20.24
2018-09-21T00:54:29.421Z,20.32
2018-09-21T00:55:29.425Z,20.40
2018-09-21T00:56:29.416Z,20.39
2018-09-21T00:57:29.389Z,20.37
2018-09-21T00:58:29.375Z,20.32
2018-09-21T00:59:29.363Z,20.39
2018-09-21T01:00:29.359Z,20.48
2018-09-21T01:01:29.338Z,20.47
2018-09-21T01:02:29.350Z,20.44
2018-09-21T01:03:29.322Z,20.47
2018-09-21T01:04:29.317Z,20.47
2018-09-21T01:05:29.303Z,20.43
2018-09-21T01:06:29.304Z,20.40
2018-09-21T01:07:29.291Z,20.36
2018-09-21T01:08:29.263Z,20.47
2018-09-21T01:09:29.249Z,20.34
2018-09-21T01:10:29.244Z,20.43
2018-09-21T01:11:29.251Z,20.47
2018-09-21T01:12:29.240Z,20.43
2018-09-21T01:13:29.206Z,20.43
2018-09-21T01:14:29.196Z,20.44
2018-09-21T01:15:29.190Z,20.47
2018-09-21T01:16:29.188Z,20.44
2018-09-21T01:17:29.192Z,20.41
2018-09-21T01:18:29.155Z,20.44
2018-09-21T01:19:29.148Z,20.44
2018-09-21T01:20:29.133Z,20.36
2018-09-21T01:21:29.116Z,20.28
2018-09-21T01:22:29.110Z,20.34
2018-09-21T01:23:29.131Z,20.43
2018-09-21T01:24:29.097Z,20.47
2018-09-21T01:25:29.083Z,20.47
2018-09-21T01:26:29.085Z,20.50
2018-09-21T01:27:29.055Z,20.50
2018-09-21T01:28:29.040Z,20.65
2018-09-21T01:29:29.035Z,20.60
2018-09-21T01:30:29.046Z,20.52
2018-09-21T01:31:29.008Z,20.59
2018-09-21T01:32:28.995Z,20.56
2018-09-21T01:33:28.987Z,20.58
2018-09-21T01:34:28.973Z,20.56
2018-09-21T01:35:28.987Z,20.60
2018-09-21T01:36:28.976Z,20.51
2018-09-21T01:37:28.945Z,20.60
2018-09-21T01:38:28.936Z,20.60
2018-09-21T01:39:28.919Z,20.67
2018-09-21T01:40:28.909Z,20.72
2018-09-21T01:41:28.918Z,20.67
2018-09-21T01:42:28.885Z,20.74
2018-09-21T01:43:28.885Z,20.74
2018-09-21T01:44:28.868Z,20.69
2018-09-21T01:45:28.855Z,20.70
2018-09-21T01:46:28.859Z,20.63
2018-09-21T01:47:28.843Z,20.65
2018-09-21T01:48:28.831Z,20.58
2018-09-21T01:49:28.816Z,20.72
2018-09-21T01:50:28.862Z,20.75
2018-09-21T01:51:28.805Z,20.95
2018-09-21T01:52:28.781Z,20.93
2018-09-21T01:53:28.769Z,20.95
2018-09-21T01:54:28.756Z,20.92
2018-09-21T01:55:28.773Z,20.75
2018-09-21T01:56:28.739Z,20.75
2018-09-21T01:57:28.725Z,20.70
2018-09-21T01:58:28.736Z,20.90
2018-09-21T01:59:28.700Z,20.87
2018-09-21T02:00:28.691Z,20.78
2018-09-21T02:01:28.689Z,20.77
2018-09-21T02:02:28.672Z,20.74
2018-09-21T02:03:28.676Z,20.70
2018-09-21T02:04:28.646Z,20.74
2018-09-21T02:05:28.638Z,20.72
2018-09-21T02:06:28.622Z,20.65
2018-09-21T02:07:28.618Z,20.56
2018-09-21T02:08:28.624Z,20.58
2018-09-21T02:09:28.641Z,20.58
2018-09-21T02:10:28.585Z,20.59
2018-09-21T02:11:28.568Z,20.63
2018-09-21T02:12:28.576Z,20.63
2018-09-21T02:13:28.568Z,20.62
2018-09-21T02:14:28.546Z,20.58
2018-09-21T02:15:28.530Z,20.48
2018-09-21T02:16:28.536Z,20.47
2018-09-21T02:17:28.549Z,20.40
2018-09-21T02:18:28.510Z,20.37
2018-09-21T02:19:28.487Z,20.40
2018-09-21T02:20:28.476Z,20.41
2018-09-21T02:21:28.462Z,20.41
2018-09-21T02:22:28.458Z,20.48
2018-09-21T02:23:28.453Z,20.50
2018-09-21T02:24:28.446Z,20.44
2018-09-21T02:25:28.420Z,20.32
2018-09-21T02:26:28.425Z,20.32
2018-09-21T02:27:28.400Z,20.37
2018-09-21T02:28:28.403Z,20.29
2018-09-21T02:29:28.376Z,20.37
2018-09-21T02:30:28.372Z,20.41
2018-09-21T02:31:28.348Z,20.50
2018-09-21T02:32:28.340Z,20.51
2018-09-21T02:33:28.348Z,20.62
2018-09-21T02:34:28.326Z,20.70
2018-09-21T02:35:28.306Z,20.72
2018-09-21T02:36:28.313Z,20.81
2018-09-21T02:37:28.287Z,20.81
2018-09-21T02:38:28.276Z,20.75
2018-09-21T02:39:28.268Z,20.72
2018-09-21T02:40:28.259Z,20.81
2018-09-21T02:41:28.340Z,20.70
2018-09-21T02:42:28.236Z,20.75
2018-09-21T02:43:28.220Z,20.65
2018-09-21T02:44:28.217Z,20.62
2018-09-21T02:45:28.200Z,20.62
2018-09-21T02:46:28.204Z,20.70
2018-09-21T02:47:28.183Z,20.63
2018-09-21T02:48:28.187Z,20.67
2018-09-21T02:49:28.155Z,20.78
2018-09-21T02:50:28.159Z,20.67
2018-09-21T02:51:28.139Z,20.60
2018-09-21T02:52:28.135Z,20.69
2018-09-21T02:53:28.152Z,20.72
2018-09-21T02:54:28.106Z,20.66
2018-09-21T02:55:28.093Z,20.72
2018-09-21T02:56:28.079Z,20.74
2018-09-21T02:57:28.078Z,20.78
2018-09-21T02:58:28.058Z,20.77
2018-09-21T02:59:28.079Z,20.81
2018-09-21T03:00:28.114Z,20.84
2018-09-21T03:01:28.044Z,20.74
2018-09-21T03:02:28.020Z,20.70
2018-09-21T03:03:28.001Z,20.63
2018-09-21T03:04:28.017Z,20.60
2018-09-21T03:05:27.983Z,20.66
2018-09-21T03:06:27.974Z,20.69
2018-09-21T03:07:27.956Z,20.74
2018-09-21T03:08:27.948Z,20.72
2018-09-21T03:09:27.937Z,20.69
2018-09-21T03:10:27.950Z,20.75
2018-09-21T03:11:27.938Z,20.74
2018-09-21T03:12:27.909Z,20.72
2018-09-21T03:13:27.897Z,20.74
2018-09-21T03:14:27.887Z,20.69
2018-09-21T03:15:27.871Z,20.74
2018-09-21T03:16:27.877Z,20.67
2018-09-21T03:17:27.851Z,20.75
2018-09-21T03:18:27.842Z,20.72
2018-09-21T03:19:27.834Z,20.65
2018-09-21T03:20:27.823Z,20.67
2018-09-21T03:21:27.826Z,20.67
2018-09-21T03:22:27.801Z,20.74
2018-09-21T03:23:27.792Z,20.67
2018-09-21T03:24:27.794Z,20.80
2018-09-21T03:25:27.769Z,20.77
2018-09-21T03:26:27.757Z,20.80
2018-09-21T03:27:27.753Z,20.80
2018-09-21T03:28:27.749Z,20.80
2018-09-21T03:29:27.720Z,20.81
2018-09-21T03:30:27.707Z,20.69
2018-09-21T03:31:27.720Z,20.72
2018-09-21T03:32:27.689Z,20.77
2018-09-21T03:33:27.681Z,20.77
2018-09-21T03:34:27.688Z,20.88
2018-09-21T03:35:27.672Z,20.92
2018-09-21T03:36:27.661Z,20.95
2018-09-21T03:37:27.639Z,20.85
2018-09-21T03:38:27.626Z,20.84
2018-09-21T03:39:27.609Z,20.90
2018-09-21T03:40:27.603Z,20.93
2018-09-21T03:41:27.609Z,20.78
2018-09-21T03:42:27.577Z,20.78
2018-09-21T03:43:27.572Z,20.74
2018-09-21T03:44:27.559Z,20.88
2018-09-21T03:45:27.565Z,20.84
2018-09-21T03:46:27.558Z,20.80
2018-09-21T03:47:27.536Z,20.93
2018-09-21T03:48:27.516Z,20.95
2018-09-21T03:49:27.504Z,20.93
2018-09-21T03:50:27.491Z,20.92
2018-09-21T03:51:27.508Z,20.92
2018-09-21T03:52:27.473Z,20.84
2018-09-21T03:53:27.460Z,20.87
2018-09-21T03:54:27.447Z,20.93
2018-09-21T03:55:27.443Z,20.95
2018-09-21T03:56:27.459Z,20.95
2018-09-21T03:57:27.418Z,21.03
2018-09-21T03:58:27.415Z,21.03
2018-09-21T03:59:27.393Z,21.07
2018-09-21T04:00:27.384Z,21.06
2018-09-21T04:01:27.373Z,20.97
2018-09-21T04:02:27.384Z,21.00
2018-09-21T04:03:27.363Z,20.95
2018-09-21T04:04:27.344Z,20.96
2018-09-21T04:05:27.332Z,20.99
2018-09-21T04:06:27.331Z,20.99
2018-09-21T04:07:27.322Z,20.95
2018-09-21T04:08:27.325Z,20.93
2018-09-21T04:09:27.290Z,20.96
2018-09-21T04:10:27.284Z,20.95
2018-09-21T04:11:27.281Z,20.93
2018-09-21T04:12:27.272Z,21.00
2018-09-21T04:13:27.271Z,21.06
2018-09-21T04:14:27.256Z,21.07
2018-09-21T04:15:27.227Z,21.09
2018-09-21T04:16:27.215Z,21.03
2018-09-21T04:17:27.202Z,21.02
2018-09-21T04:18:27.197Z,20.99
2018-09-21T04:19:27.181Z,21.03
2018-09-21T04:20:27.196Z,21.05
2018-09-21T04:21:27.158Z,21.06
2018-09-21T04:22:27.167Z,21.22
2018-09-21T04:23:27.179Z,21.21
2018-09-21T04:24:27.131Z,21.21
2018-09-21T04:25:27.116Z,21.30
2018-09-21T04:26:27.123Z,21.21
2018-09-21T04:27:27.102Z,21.24
2018-09-21T04:28:27.090Z,21.21
2018-09-21T04:29:27.074Z,21.15
2018-09-21T04:30:27.067Z,21.20
2018-09-21T04:31:27.067Z,21.27
2018-09-21T04:32:27.056Z,21.17
2018-09-21T04:33:27.034Z,21.17
2018-09-21T04:34:27.020Z,21.24
2018-09-21T04:35:27.021Z,21.29
2018-09-21T04:36:27.001Z,21.24
2018-09-21T04:37:27.027Z,21.18
2018-09-21T04:38:26.978Z,21.32
2018-09-21T04:39:26.961Z,21.33
2018-09-21T04:40:26.961Z,21.30
2018-09-21T04:41:26.961Z,21.27
2018-09-21T04:42:26.936Z,21.32
2018-09-21T04:43:26.936Z,21.32
2018-09-21T04:44:26.918Z,21.36
2018-09-21T04:45:26.899Z,21.35
2018-09-21T04:46:26.886Z,21.48
2018-09-21T04:47:26.885Z,21.46
2018-09-21T04:48:26.888Z,21.48
2018-09-21T04:49:26.859Z,21.50
2018-09-21T04:50:26.850Z,21.36
2018-09-21T04:51:26.857Z,21.37
2018-09-21T04:52:26.846Z,21.33
2018-09-21T04:53:26.814Z,21.43
2018-09-21T04:54:26.846Z,21.37
2018-09-21T04:55:26.880Z,21.37
2018-09-21T04:56:26.794Z,21.29
2018-09-21T04:57:26.791Z,21.36
2018-09-21T04:58:26.762Z,21.32
2018-09-21T04:59:26.759Z,21.33
2018-09-21T05:00:26.740Z,21.29
2018-09-21T05:01:26.748Z,21.33
2018-09-21T05:02:26.720Z,21.35
2018-09-21T05:03:26.705Z,21.33
2018-09-21T05:04:26.705Z,21.29
2018-09-21T05:05:26.721Z,21.32
2018-09-21T05:06:26.691Z,21.35
2018-09-21T05:07:26.671Z,21.35
2018-09-21T05:08:26.666Z,21.37
2018-09-21T05:09:26.645Z,21.37
2018-09-21T05:10:26.650Z,21.30
2018-09-21T05:11:26.674Z,21.46
2018-09-21T05:12:26.610Z,21.46
2018-09-21T05:13:26.603Z,21.50
2018-09-21T05:14:26.592Z,21.50
2018-09-21T05:15:26.579Z,21.46
2018-09-21T05:16:26.564Z,21.57
2018-09-21T05:17:26.575Z,21.54
2018-09-21T05:18:26.547Z,21.50
2018-09-21T05:19:26.535Z,21.57
2018-09-21T05:20:26.545Z,21.58
2018-09-21T05:21:26.515Z,21.48
2018-09-21T05:22:26.504Z,21.60
2018-09-21T05:23:26.509Z,21.52
2018-09-21T05:24:26.478Z,21.61
2018-09-21T05:25:26.466Z,21.57
2018-09-21T05:26:26.477Z,21.55
2018-09-21T05:27:26.490Z,21.46
2018-09-21T05:28:26.460Z,21.52
2018-09-21T05:29:26.424Z,21.52
2018-09-21T05:30:26.419Z,21.62
2018-09-21T05:31:26.460Z,21.67
2018-09-21T05:32:26.456Z,21.66
2018-09-21T05:33:26.389Z,21.75
2018-09-21T05:34:26.473Z,21.66
2018-09-21T05:35:26.362Z,21.67
2018-09-21T05:36:26.356Z,21.58
2018-09-21T05:37:26.361Z,21.61
2018-09-21T05:38:26.329Z,21.60
2018-09-21T05:39:26.320Z,21.60
2018-09-21T05:40:26.312Z,21.55
2018-09-21T05:41:26.319Z,21.62
2018-09-21T05:42:26.290Z,21.62
2018-09-21T05:43:26.276Z,21.62
2018-09-21T05:44:26.276Z,21.72
2018-09-21T05:45:26.276Z,21.85
2018-09-21T05:46:26.299Z,21.77
2018-09-21T05:47:26.234Z,21.83
2018-09-21T05:48:26.260Z,21.85
2018-09-21T05:49:26.218Z,21.85
2018-09-21T05:50:26.201Z,21.83
2018-09-21T05:51:26.227Z,21.73
2018-09-21T05:52:26.190Z,21.76
2018-09-21T05:53:26.185Z,21.64
2018-09-21T05:54:26.163Z,21.73
2018-09-21T05:55:26.166Z,21.62
2018-09-21T05:56:26.136Z,21.70
2018-09-21T05:57:26.157Z,21.57
2018-09-21T05:58:26.115Z,21.60
2018-09-21T05:59:26.108Z,21.61
2018-09-21T06:00:26.109Z,21.61
2018-09-21T06:01:26.081Z,21.66
2018-09-21T06:02:26.099Z,21.57
2018-09-21T06:03:26.070Z,21.64
2018-09-21T06:04:26.071Z,21.64
2018-09-21T06:05:26.046Z,21.75
2018-09-21T06:06:26.051Z,21.62
2018-09-21T06:07:26.019Z,21.64
2018-09-21T06:08:26.009Z,21.67
2018-09-21T06:09:25.995Z,21.60
2018-09-21T06:10:25.987Z,21.73
2018-09-21T06:11:25.999Z,21.76
2018-09-21T06:12:25.971Z,21.80
2018-09-21T06:13:25.963Z,21.75
2018-09-21T06:14:25.987Z,21.80
2018-09-21T06:15:25.937Z,21.85
2018-09-21T06:16:25.955Z,21.88
2018-09-21T06:17:25.916Z,21.83
2018-09-21T06:18:25.908Z,21.88
2018-09-21T06:19:25.945Z,21.83
2018-09-21T06:20:25.877Z,21.88
2018-09-21T06:21:25.869Z,21.83
2018-09-21T06:22:25.896Z,22.00
2018-09-21T06:23:25.862Z,21.91
2018-09-21T06:24:25.841Z,21.92
2018-09-21T06:25:25.832Z,21.93
2018-09-21T06:26:25.818Z,21.95
2018-09-21T06:27:25.816Z,21.98
2018-09-21T06:28:25.816Z,21.99
2018-09-21T06:29:25.797Z,21.98
2018-09-21T06:30:25.775Z,21.98
2018-09-21T06:31:25.780Z,21.95
2018-09-21T06:32:25.811Z,21.88
2018-09-21T06:33:25.758Z,21.91
2018-09-21T06:34:25.763Z,21.92
2018-09-21T06:35:25.748Z,21.91
2018-09-21T06:36:25.733Z,21.93
2018-09-21T06:37:25.724Z,21.98
2018-09-21T06:38:25.691Z,22.08
2018-09-21T06:39:25.676Z,22.10
2018-09-21T06:40:25.664Z,22.11
2018-09-21T06:41:25.676Z,22.06
2018-09-21T06:42:25.691Z,22.13
2018-09-21T06:43:25.635Z,22.00
2018-09-21T06:44:25.653Z,22.08
2018-09-21T06:45:25.616Z,22.13
2018-09-21T06:46:25.618Z,22.14
2018-09-21T06:47:25.590Z,22.28
2018-09-21T06:48:25.595Z,22.18
2018-09-21T06:49:28.413Z,22.22
2018-09-21T06:50:25.561Z,22.22
2018-09-21T06:51:25.547Z,22.29
2018-09-21T06:52:25.536Z,22.30
2018-09-21T06:53:25.550Z,22.20
2018-09-21T06:54:25.515Z,22.29
2018-09-21T06:55:25.516Z,22.25
2018-09-21T06:56:25.526Z,22.14
2018-09-21T06:57:25.487Z,22.17
2018-09-21T06:58:25.474Z,22.15
2018-09-21T06:59:25.488Z,22.15
2018-09-21T07:00:25.448Z,22.15
2018-09-21T07:01:25.515Z,22.18
2018-09-21T07:02:25.428Z,22.13
2018-09-21T07:03:25.424Z,22.13
2018-09-21T07:04:25.412Z,22.20
2018-09-21T07:05:25.433Z,22.04
2018-09-21T07:06:25.387Z,22.08
2018-09-21T07:07:25.377Z,22.02
2018-09-21T07:08:25.421Z,22.17
2018-09-21T07:09:25.359Z,22.13
2018-09-21T07:10:25.347Z,22.06
2018-09-21T07:11:25.352Z,22.15
2018-09-21T07:12:25.323Z,22.22
2018-09-21T07:13:25.340Z,22.14
2018-09-21T07:14:25.301Z,22.18
2018-09-21T07:15:25.300Z,22.20
2018-09-21T07:16:25.310Z,22.02
2018-09-21T07:17:25.287Z,22.10
2018-09-21T07:18:25.260Z,22.08
2018-09-21T07:19:25.267Z,22.15
2018-09-21T07:20:25.237Z,22.02
2018-09-21T07:21:25.230Z,22.07
2018-09-21T07:22:25.216Z,22.11
2018-09-21T07:23:25.295Z,22.08
2018-09-21T07:24:25.190Z,22.04
2018-09-21T07:25:25.185Z,22.10
2018-09-21T07:26:25.177Z,22.02
2018-09-21T07:27:25.164Z,22.00
2018-09-21T07:28:25.181Z,22.02
2018-09-21T07:29:25.209Z,22.06
2018-09-21T07:30:25.149Z,22.06
2018-09-21T07:31:25.206Z,22.08
2018-09-21T07:32:25.111Z,22.11
2018-09-21T07:33:25.095Z,22.14
2018-09-21T07:34:25.102Z,22.14
2018-09-21T07:35:25.077Z,22.20
2018-09-21T07:36:25.076Z,22.28
2018-09-21T07:37:25.123Z,22.13
2018-09-21T07:38:25.129Z,22.20
2018-09-21T07:39:25.034Z,22.22
2018-09-21T07:40:25.028Z,22.28
2018-09-21T07:41:25.014Z,22.30
2018-09-21T07:42:25.009Z,22.33
2018-09-21T07:43:25.011Z,22.33
2018-09-21T07:44:25.029Z,22.30
2018-09-21T07:45:24.985Z,22.25
2018-09-21T07:46:24.955Z,22.25
2018-09-21T07:47:24.947Z,22.18
2018-09-21T07:48:25.009Z,22.07
2018-09-21T07:49:24.949Z,22.08
2018-09-21T07:50:24.950Z,22.10
2018-09-21T07:51:24.902Z,22.00
2018-09-21T07:52:24.889Z,22.00
2018-09-21T07:53:24.898Z,22.08
2018-09-21T07:54:24.898Z,22.10
2018-09-21T07:55:24.864Z,22.10
2018-09-21T07:56:24.846Z,22.22
2018-09-21T07:57:24.852Z,22.06
2018-09-21T07:58:24.860Z,22.06
2018-09-21T07:59:24.846Z,22.10
2018-09-21T08:00:24.814Z,22.00
2018-09-21T08:01:24.804Z,22.06
2018-09-21T08:02:24.786Z,21.96
2018-09-21T08:03:24.773Z,21.99
2018-09-21T08:04:24.777Z,21.99
2018-09-21T08:05:24.752Z,21.99
2018-09-21T08:06:24.743Z,21.95
2018-09-21T08:07:24.748Z,21.98
2018-09-21T08:08:24.752Z,21.98
2018-09-21T08:09:24.727Z,22.06
2018-09-21T08:10:24.700Z,22.10
2018-09-21T08:11:24.691Z,22.07
2018-09-21T08:12:24.684Z,22.11
2018-09-21T08:13:24.672Z,22.06
2018-09-21T08:14:24.677Z,21.99
2018-09-21T08:15:24.664Z,21.83
2018-09-21T08:16:24.676Z,21.83
2018-09-21T08:17:24.620Z,21.75
2018-09-21T08:18:24.613Z,21.66
2018-09-21T08:19:24.617Z,21.54
2018-09-21T08:20:24.622Z,21.54
2018-09-21T08:21:24.663Z,21.45
2018-09-21T08:22:24.572Z,21.42
2018-09-21T08:23:24.558Z,21.40
2018-09-21T08:24:24.545Z,21.30
2018-09-21T08:25:24.542Z,21.27
2018-09-21T08:26:24.536Z,21.33
2018-09-21T08:27:24.541Z,21.21
2018-09-21T08:28:24.503Z,21.24
2018-09-21T08:29:24.493Z,21.21
2018-09-21T08:30:24.485Z,21.25
2018-09-21T08:31:24.552Z,21.29
2018-09-21T08:32:24.466Z,21.43
2018-09-21T08:33:24.472Z,21.61
2018-09-21T08:34:24.443Z,21.66
2018-09-21T08:35:24.431Z,21.85
2018-09-21T08:36:24.433Z,21.85
2018-09-21T08:37:24.488Z,21.96
2018-09-21T08:38:24.396Z,21.91
2018-09-21T08:39:24.402Z,21.98
2018-09-21T08:40:24.396Z,22.07
2018-09-21T08:41:24.417Z,22.14
2018-09-21T08:42:24.355Z,22.07
2018-09-21T08:43:24.347Z,22.02
2018-09-21T08:44:24.335Z,22.11
2018-09-21T08:45:24.330Z,22.00
2018-09-21T08:46:24.339Z,22.08
2018-09-21T08:47:24.300Z,22.04
2018-09-21T08:48:24.286Z,21.95
2018-09-21T08:49:24.284Z,21.99
2018-09-21T08:50:24.270Z,21.88
2018-09-21T08:51:24.279Z,21.72
2018-09-21T08:52:24.281Z,21.72
2018-09-21T08:53:24.247Z,21.66
2018-09-21T08:54:24.249Z,21.57
2018-09-21T08:55:24.218Z,21.54
2018-09-21T08:56:24.219Z,21.52
2018-09-21T08:57:24.196Z,21.54
2018-09-21T08:58:24.193Z,21.60
2018-09-21T08:59:24.170Z,21.40
2018-09-21T09:00:24.157Z,21.30
2018-09-21T09:01:24.189Z,21.17
2018-09-21T09:02:24.174Z,20.93
2018-09-21T09:03:24.201Z,20.87
2018-09-21T09:04:24.156Z,20.74
2018-09-21T09:05:24.110Z,20.74
2018-09-21T09:06:24.099Z,20.63
2018-09-21T09:07:24.087Z,20.51
2018-09-21T09:08:24.081Z,20.36
2018-09-21T09:09:24.063Z,20.19
2018-09-21T09:10:24.084Z,20.14
2018-09-21T09:11:24.045Z,20.09
2018-09-21T09:12:24.039Z,19.92
2018-09-21T09:13:24.017Z,19.88
2018-09-21T09:14:24.015Z,19.33
2018-09-21T09:15:24.000Z,18.75
2018-09-21T09:16:24.017Z,18.28
2018-09-21T09:17:23.992Z,17.87
2018-09-21T09:18:23.968Z,17.52
2018-09-21T09:19:23.953Z,17.27
2018-09-21T09:20:23.942Z,17.02
2018-09-21T09:21:23.941Z,16.86
2018-09-21T09:22:23.975Z,16.68
2018-09-21T09:23:23.971Z,16.46
2018-09-21T09:24:23.900Z,16.17
2018-09-21T09:25:23.889Z,15.75
2018-09-21T09:26:23.897Z,15.44
2018-09-21T09:27:23.879Z,15.06
2018-09-21T09:28:23.893Z,14.66
2018-09-21T09:29:23.848Z,14.29
2018-09-21T09:30:23.832Z,13.99
2018-09-21T09:31:23.835Z,13.83
2018-09-21T09:32:23.855Z,13.63
2018-09-21T09:33:23.810Z,13.53
2018-09-21T09:34:23.799Z,13.46
2018-09-21T09:35:23.790Z,13.37
2018-09-21T09:36:23.769Z,13.20
2018-09-21T09:37:23.779Z,13.33
2018-09-21T09:38:23.745Z,13.20
2018-09-21T09:39:23.746Z,13.13
2018-09-21T09:40:23.731Z,13.09
2018-09-21T09:41:23.737Z,12.83
2018-09-21T09:42:23.709Z,12.80
2018-09-21T09:43:23.716Z,12.78
2018-09-21T09:44:23.728Z,12.65
2018-09-21T09:45:23.685Z,12.72
2018-09-21T09:46:23.696Z,12.57
2018-09-21T09:47:23.668Z,12.67
2018-09-21T09:48:23.713Z,12.60
2018-09-21T09:49:23.652Z,12.54
2018-09-21T09:50:23.627Z,12.62
2018-09-21T09:51:23.612Z,12.55
2018-09-21T09:52:23.616Z,12.57
2018-09-21T09:53:23.625Z,12.57
2018-09-21T09:54:23.592Z,12.46
2018-09-21T09:55:23.562Z,12.58
2018-09-21T09:56:23.552Z,12.55
2018-09-21T09:57:23.542Z,12.60
2018-09-21T09:58:23.532Z,12.58
2018-09-21T09:59:23.565Z,12.54
2018-09-21T10:00:23.511Z,12.67
2018-09-21T10:01:23.500Z,12.64
2018-09-21T10:02:23.488Z,12.70
2018-09-21T10:03:23.562Z,12.67
2018-09-21T10:04:23.506Z,12.72
2018-09-21T10:05:23.515Z,12.65
2018-09-21T10:06:23.542Z,12.73
2018-09-21T10:07:23.432Z,12.68
2018-09-21T10:08:23.426Z,12.67
2018-09-21T10:09:23.413Z,12.55
2018-09-21T10:10:23.475Z,12.60
2018-09-21T10:11:23.396Z,12.67
2018-09-21T10:12:23.403Z,12.60
2018-09-21T10:13:23.397Z,12.70
2018-09-21T10:14:23.362Z,12.75
2018-09-21T10:15:23.351Z,12.73
2018-09-21T10:16:23.386Z,12.87
2018-09-21T10:17:23.354Z,12.76
2018-09-21T10:18:23.343Z,12.78
2018-09-21T10:19:23.301Z,12.82
2018-09-21T10:20:23.293Z,12.73
2018-09-21T10:21:23.281Z,12.67
2018-09-21T10:22:23.268Z,12.70
2018-09-21T10:23:23.293Z,12.67
2018-09-21T10:24:23.251Z,12.72
2018-09-21T10:25:23.290Z,12.64
2018-09-21T10:26:23.280Z,12.62
2018-09-21T10:27:23.282Z,12.61
2018-09-21T10:28:23.396Z,12.73
2018-09-21T10:29:23.214Z,12.86
2018-09-21T10:30:23.181Z,12.70
2018-09-21T10:31:23.176Z,12.67
2018-09-21T10:32:23.175Z,12.67
2018-09-21T10:33:23.247Z,12.80
2018-09-21T10:34:23.140Z,12.82
2018-09-21T10:35:23.273Z,12.82
2018-09-21T10:36:23.152Z,12.68
2018-09-21T10:37:23.108Z,12.70
2018-09-21T10:38:23.099Z,12.79
2018-09-21T10:39:23.181Z,12.85
2018-09-21T10:40:23.150Z,12.85
2018-09-21T10:41:23.064Z,12.82
2018-09-21T10:42:23.148Z,12.91
2018-09-21T10:43:23.072Z,12.85
2018-09-21T10:44:23.031Z,12.83
2018-09-21T10:45:23.024Z,12.90
2018-09-21T10:46:23.062Z,12.86
2018-09-21T10:47:23.082Z,12.98
2018-09-21T10:48:23.013Z,13.03
2018-09-21T10:49:22.977Z,13.12
2018-09-21T10:50:22.976Z,13.09
2018-09-21T10:51:22.955Z,13.31
2018-09-21T10:52:22.945Z,13.19
2018-09-21T10:53:22.935Z,13.23
2018-09-21T10:54:22.937Z,13.27
2018-09-21T10:55:22.935Z,13.22
2018-09-21T10:56:22.928Z,13.27
2018-09-21T10:57:22.892Z,13.33
2018-09-21T10:58:22.901Z,13.39
2018-09-21T10:59:22.869Z,13.41
2018-09-21T11:00:22.920Z,13.49
2018-09-21T11:01:22.868Z,13.50
2018-09-21T11:02:22.833Z,13.47
2018-09-21T11:03:22.831Z,13.39
2018-09-21T11:04:22.819Z,13.53
2018-09-21T11:05:22.808Z,13.60
2018-09-21T11:06:22.838Z,13.72
2018-09-21T11:07:22.831Z,13.78
2018-09-21T11:08:22.819Z,13.68
2018-09-21T11:09:22.798Z,13.81
2018-09-21T11:10:22.764Z,13.87
2018-09-21T11:11:22.735Z,13.95
2018-09-21T11:12:22.757Z,13.96
2018-09-21T11:13:22.718Z,14.11
2018-09-21T11:14:22.709Z,14.18
2018-09-21T11:15:22.699Z,14.23
2018-09-21T11:16:22.702Z,14.20
2018-09-21T11:17:22.673Z,14.26
2018-09-21T11:18:22.690Z,14.26
2018-09-21T11:19:22.675Z,14.25
2018-09-21T11:20:22.644Z,14.29
2018-09-21T11:21:22.638Z,14.41
2018-09-21T11:22:22.625Z,14.37
2018-09-21T11:23:22.632Z,14.33
2018-09-21T11:24:22.638Z,14.32
2018-09-21T11:25:22.589Z,14.37
2018-09-21T11:26:22.577Z,14.40
2018-09-21T11:27:22.568Z,14.37
2018-09-21T11:28:22.591Z,14.36
2018-09-21T11:29:22.609Z,14.53
2018-09-21T11:30:22.551Z,14.51
2018-09-21T11:31:22.521Z,14.66
2018-09-21T11:32:22.515Z,14.86
2018-09-21T11:33:22.502Z,15.09
2018-09-21T11:34:22.485Z,15.09
2018-09-21T11:35:22.499Z,14.96
2018-09-21T11:36:22.487Z,15.11
2018-09-21T11:37:22.456Z,15.15
2018-09-21T11:38:22.451Z,15.17
2018-09-21T11:39:22.442Z,15.24
2018-09-21T11:40:22.427Z,15.42
2018-09-21T11:41:22.442Z,15.51
2018-09-21T11:42:22.411Z,15.51
2018-09-21T11:43:22.391Z,15.42
2018-09-21T11:44:22.381Z,15.33
2018-09-21T11:45:22.376Z,15.02
2018-09-21T11:46:22.379Z,15.04
2018-09-21T11:47:22.509Z,15.18
2018-09-21T11:48:22.340Z,15.33
2018-09-21T11:49:22.428Z,15.35
2018-09-21T11:50:22.368Z,15.52
2018-09-21T11:51:22.306Z,15.57
2018-09-21T11:52:22.296Z,15.72
2018-09-21T11:53:22.288Z,15.82
2018-09-21T11:54:22.278Z,15.72
2018-09-21T11:55:22.285Z,15.73
2018-09-21T11:56:22.278Z,15.46
2018-09-21T11:57:22.241Z,15.44
2018-09-21T11:58:22.234Z,15.51
2018-09-21T11:59:22.222Z,15.54
2018-09-21T12:00:22.230Z,15.73
2018-09-21T12:01:22.211Z,15.83
2018-09-21T12:02:22.192Z,16.01
2018-09-21T12:03:22.173Z,16.17
2018-09-21T12:04:22.165Z,16.15
2018-09-21T12:05:22.171Z,16.21
2018-09-21T12:06:22.143Z,16.36
2018-09-21T12:07:22.149Z,16.43
2018-09-21T12:08:22.133Z,16.50
2018-09-21T12:09:22.130Z,16.47
2018-09-21T12:10:22.198Z,16.33
2018-09-21T12:11:22.167Z,16.24
2018-09-21T12:12:22.095Z,16.33
2018-09-21T12:13:22.071Z,16.17
2018-09-21T12:14:22.059Z,16.15
2018-09-21T12:15:22.064Z,16.08
2018-09-21T12:16:22.033Z,16.23
2018-09-21T12:17:22.043Z,16.23
2018-09-21T12:18:22.008Z,16.21
2018-09-21T12:19:22.006Z,16.21
2018-09-21T12:20:22.011Z,16.04
2018-09-21T12:21:21.981Z,16.09
2018-09-21T12:22:21.987Z,16.23
2018-09-21T12:23:21.955Z,16.23
2018-09-21T12:24:21.944Z,16.05
2018-09-21T12:25:21.934Z,16.05
2018-09-21T12:26:21.925Z,16.26
2018-09-21T12:27:21.926Z,16.16
2018-09-21T12:28:21.903Z,16.21
2018-09-21T12:29:21.913Z,16.26
2018-09-21T12:30:21.937Z,16.15
2018-09-21T12:31:21.890Z,16.12
2018-09-21T12:32:21.862Z,16.16
2018-09-21T12:33:21.846Z,16.20
2018-09-21T12:34:21.842Z,16.17
2018-09-21T12:35:21.840Z,16.20
2018-09-21T12:36:21.840Z,16.20
2018-09-21T12:37:21.818Z,16.17
2018-09-21T12:38:21.798Z,16.20
2018-09-21T12:39:21.787Z,16.23
2018-09-21T12:40:21.790Z,16.39
2018-09-21T12:41:21.773Z,16.39
2018-09-21T12:42:21.802Z,16.51
2018-09-21T12:43:21.740Z,16.43
2018-09-21T12:44:21.749Z,16.39
2018-09-21T12:45:21.757Z,16.46
2018-09-21T12:46:21.723Z,16.39
2018-09-21T12:47:21.728Z,16.43
2018-09-21T12:48:21.680Z,16.38
2018-09-21T12:49:21.670Z,16.17
2018-09-21T12:50:21.688Z,16.23
2018-09-21T12:51:21.670Z,16.20
2018-09-21T12:52:21.666Z,16.23